createdAt,value
2018-06-16T00:00:53.327Z,1019.81
2018-06-16T00:01:53.903Z,1019.83
2018-06-16T00:02:54.477Z,1019.78
2018-06-16T00:03:55.054Z,1019.79
2018-06-16T00:04:55.625Z,1019.81
2018-06-16T00:05:56.247Z,1019.84
2018-06-16T00:06:56.851Z,1019.78
2018-06-16T00:10:12.715Z,1019.79
2018-06-16T00:11:13.285Z,1019.84
2018-06-16T00:12:13.858Z,1019.84
2018-06-16T00:13:14.432Z,1019.89
2018-06-16T00:14:15.007Z,1019.83
2018-06-16T00:15:15.632Z,1019.90
2018-06-16T00:16:16.214Z,1019.83
2018-06-16T00:17:16.786Z,1019.85
2018-06-16T00:18:17.358Z,1019.84
2018-06-16T00:19:17.934Z,1019.90
2018-06-16T00:20:18.508Z,1019.86
2018-06-16T00:21:19.082Z,1019.92
2018-06-16T00:22:33.419Z,1019.80
2018-06-16T00:23:33.992Z,1019.89
2018-06-16T00:24:34.570Z,1019.96
2018-06-16T00:27:38.483Z,1019.93
2018-06-16T00:28:39.108Z,1019.91
2018-06-16T00:29:39.681Z,1019.90
2018-06-16T00:30:40.259Z,1019.95
2018-06-16T00:31:40.883Z,1019.98
2018-06-16T00:32:41.458Z,1019.98
2018-06-16T00:33:42.031Z,1019.96
2018-06-16T00:34:42.604Z,1020.00
2018-06-16T00:35:43.179Z,1019.92
2018-06-16T00:36:43.753Z,1019.94
2018-06-16T00:37:44.329Z,1019.90
2018-06-16T00:38:44.942Z,1019.89
2018-06-16T00:39:45.516Z,1019.87
2018-06-16T00:40:46.091Z,1019.86
2018-06-16T00:41:46.662Z,1019.89
2018-06-16T00:42:47.285Z,1019.89
2018-06-16T00:43:47.860Z,1019.89
2018-06-16T00:44:48.433Z,1019.92
2018-06-16T00:45:49.005Z,1019.86
2018-06-16T00:46:49.579Z,1019.89
2018-06-16T00:47:50.205Z,1019.75
2018-06-16T00:48:50.821Z,1019.89
2018-06-16T00:49:51.447Z,1019.93
2018-06-16T00:50:52.063Z,1019.87
2018-06-16T00:51:52.637Z,1019.91
2018-06-16T00:52:53.235Z,1019.81
2018-06-16T00:53:53.784Z,1019.94
2018-06-16T00:54:54.360Z,1019.90
2018-06-16T00:55:54.933Z,1019.90
2018-06-16T00:56:55.507Z,1019.97
2018-06-16T00:57:56.080Z,1019.86
2018-06-16T00:58:56.656Z,1019.90
2018-06-16T00:59:57.229Z,1019.85
2018-06-16T01:00:57.805Z,1019.95
2018-06-16T01:01:58.378Z,1019.83
2018-06-16T01:02:59.044Z,1019.89
2018-06-16T01:03:59.620Z,1019.93
2018-06-16T01:05:00.243Z,1020.00
2018-06-16T01:06:00.818Z,1019.99
2018-06-16T01:07:01.391Z,1019.90
2018-06-16T01:08:02.012Z,1019.96
2018-06-16T01:09:02.638Z,1019.96
2018-06-16T01:10:03.216Z,1019.95
2018-06-16T01:11:03.792Z,1019.94
2018-06-16T01:12:04.370Z,1019.98
2018-06-16T01:13:04.991Z,1019.94
2018-06-16T01:14:05.567Z,1019.93
2018-06-16T01:15:06.182Z,1019.96
2018-06-16T01:16:06.756Z,1019.98
2018-06-16T01:17:07.329Z,1019.95
2018-06-16T01:18:07.905Z,1019.94
2018-06-16T01:19:08.476Z,1019.92
2018-06-16T01:20:09.049Z,1019.87
2018-06-16T01:21:09.624Z,1019.92
2018-06-16T01:22:10.248Z,1019.85
2018-06-16T01:23:10.913Z,1019.87
2018-06-16T01:24:11.484Z,1019.92
2018-06-16T01:25:12.058Z,1019.94
2018-06-16T01:26:12.633Z,1019.92
2018-06-16T01:27:13.206Z,1019.93
2018-06-16T01:28:13.779Z,1019.87
2018-06-16T01:29:14.354Z,1019.86
2018-06-16T01:30:14.928Z,1019.88
2018-06-16T01:31:15.502Z,1019.88
2018-06-16T01:32:16.076Z,1019.95
2018-06-16T01:33:16.699Z,1019.88
2018-06-16T01:34:17.316Z,1019.95
2018-06-16T01:35:17.891Z,1019.78
2018-06-16T01:36:18.465Z,1019.86
2018-06-16T01:37:19.039Z,1019.97
2018-06-16T01:38:19.613Z,1019.83
2018-06-16T01:39:20.240Z,1019.89
2018-06-16T01:40:20.812Z,1019.89
2018-06-16T01:41:26.587Z,1019.87
2018-06-16T01:42:27.161Z,1019.85
2018-06-16T01:43:27.783Z,1019.90
2018-06-16T01:44:28.358Z,1019.89
2018-06-16T01:45:28.945Z,1019.82
2018-06-16T01:46:29.549Z,1019.88
2018-06-16T01:47:30.123Z,1019.90
2018-06-16T01:48:30.745Z,1019.90
2018-06-16T01:49:31.321Z,1019.85
2018-06-16T01:50:31.894Z,1019.91
2018-06-16T01:51:32.466Z,1019.90
2018-06-16T01:52:33.042Z,1019.84
2018-06-16T01:53:33.613Z,1019.92
2018-06-16T01:54:34.188Z,1019.90
2018-06-16T01:55:34.800Z,1019.90
2018-06-16T01:56:35.373Z,1019.85
2018-06-16T01:57:35.948Z,1019.94
2018-06-16T01:58:36.520Z,1019.90
2018-06-16T01:59:37.093Z,1019.86
2018-06-16T02:00:37.667Z,1019.82
2018-06-16T02:01:38.291Z,1019.85
2018-06-16T02:02:38.913Z,1019.77
2018-06-16T02:03:39.491Z,1019.83
2018-06-16T02:04:40.059Z,1019.92
2018-06-16T02:05:40.634Z,1019.87
2018-06-16T02:06:41.208Z,1019.81
2018-06-16T02:07:41.831Z,1019.80
2018-06-16T02:08:42.402Z,1019.81
2018-06-16T02:09:43.026Z,1019.85
2018-06-16T02:10:43.600Z,1019.82
2018-06-16T02:11:44.176Z,1019.82
2018-06-16T02:12:44.750Z,1019.83
2018-06-16T02:13:45.322Z,1019.79
2018-06-16T02:14:45.896Z,1019.81
2018-06-16T02:15:46.471Z,1019.76
2018-06-16T02:16:47.046Z,1019.79
2018-06-16T02:17:47.617Z,1019.77
2018-06-16T02:18:48.193Z,1019.72
2018-06-16T02:19:48.815Z,1019.72
2018-06-16T02:20:49.390Z,1019.74
2018-06-16T02:21:50.015Z,1019.76
2018-06-16T02:22:50.590Z,1019.72
2018-06-16T02:23:51.163Z,1019.72
2018-06-16T02:24:51.735Z,1019.79
2018-06-16T02:25:52.311Z,1019.76
2018-06-16T02:26:52.885Z,1019.74
2018-06-16T02:27:53.458Z,1019.69
2018-06-16T02:28:54.031Z,1019.70
2018-06-16T02:29:54.655Z,1019.71
2018-06-16T02:30:55.321Z,1019.70
2018-06-16T02:31:55.894Z,1019.73
2018-06-16T02:33:42.271Z,1019.75
2018-06-16T02:34:42.842Z,1019.79
2018-06-16T02:35:43.465Z,1019.85
2018-06-16T02:36:44.092Z,1019.76
2018-06-16T02:37:44.664Z,1019.78
2018-06-16T02:38:45.239Z,1019.72
2018-06-16T02:39:45.812Z,1019.76
2018-06-16T02:40:46.385Z,1019.83
2018-06-16T02:41:46.961Z,1019.79
2018-06-16T02:42:47.537Z,1019.84
2018-06-16T02:43:48.201Z,1019.83
2018-06-16T02:44:48.771Z,1019.76
2018-06-16T02:45:49.346Z,1019.76
2018-06-16T02:46:49.920Z,1019.79
2018-06-16T02:47:50.492Z,1019.79
2018-06-16T02:48:51.106Z,1019.79
2018-06-16T02:49:51.686Z,1019.76
2018-06-16T02:50:52.348Z,1019.76
2018-06-16T02:51:52.925Z,1019.79
2018-06-16T02:52:53.497Z,1019.79
2018-06-16T02:53:54.105Z,1019.75
2018-06-16T02:54:54.643Z,1019.74
2018-06-16T02:55:55.217Z,1019.81
2018-06-16T02:56:55.789Z,1019.74
2018-06-16T02:57:56.412Z,1019.73
2018-06-16T02:58:56.984Z,1019.76
2018-06-16T02:59:57.560Z,1019.78
2018-06-16T03:00:58.134Z,1019.71
2018-06-16T03:01:58.757Z,1019.70
2018-06-16T03:02:59.330Z,1019.70
2018-06-16T03:03:59.902Z,1019.71
2018-06-16T03:05:00.486Z,1019.71
2018-06-16T03:06:01.053Z,1019.73
2018-06-16T03:07:01.677Z,1019.76
2018-06-16T03:08:02.250Z,1019.80
2018-06-16T03:09:02.822Z,1019.76
2018-06-16T03:10:03.397Z,1019.78
2018-06-16T03:11:03.977Z,1019.87
2018-06-16T03:12:04.588Z,1019.82
2018-06-16T03:13:05.161Z,1019.82
2018-06-16T03:14:05.742Z,1019.80
2018-06-16T03:15:06.336Z,1019.77
2018-06-16T03:16:06.904Z,1019.74
2018-06-16T03:17:07.488Z,1019.68
2018-06-16T03:18:08.067Z,1019.74
2018-06-16T03:19:08.699Z,1019.76
2018-06-16T03:20:09.281Z,1019.71
2018-06-16T03:22:41.260Z,1019.72
2018-06-16T03:23:41.832Z,1019.74
2018-06-16T03:24:42.404Z,1019.74
2018-06-16T03:25:42.976Z,1019.75
2018-06-16T03:26:43.548Z,1019.73
2018-06-16T03:27:44.122Z,1019.64
2018-06-16T03:28:44.694Z,1019.67
2018-06-16T03:29:45.266Z,1019.62
2018-06-16T03:30:45.889Z,1019.67
2018-06-16T03:31:46.465Z,1019.66
2018-06-16T03:32:47.080Z,1019.57
2018-06-16T03:33:47.650Z,1019.63
2018-06-16T03:34:48.232Z,1019.68
2018-06-16T03:36:26.659Z,1019.56
2018-06-16T03:37:27.171Z,1019.64
2018-06-16T03:38:27.793Z,1019.65
2018-06-16T03:39:28.367Z,1019.69
2018-06-16T03:40:28.991Z,1019.69
2018-06-16T03:41:29.565Z,1019.66
2018-06-16T03:42:30.142Z,1019.70
2018-06-16T03:43:30.754Z,1019.67
2018-06-16T03:44:31.332Z,1019.79
2018-06-16T03:45:31.902Z,1019.72
2018-06-16T03:46:32.477Z,1019.73
2018-06-16T03:47:33.048Z,1019.71
2018-06-16T03:48:33.621Z,1019.69
2018-06-16T03:49:34.395Z,1019.68
2018-06-16T03:50:34.969Z,1019.69
2018-06-16T03:51:35.541Z,1019.67
2018-06-16T03:52:36.114Z,1019.70
2018-06-16T03:53:36.687Z,1019.67
2018-06-16T03:54:37.259Z,1019.69
2018-06-16T03:55:37.832Z,1019.66
2018-06-16T03:56:38.405Z,1019.67
2018-06-16T03:57:38.978Z,1019.68
2018-06-16T03:58:39.602Z,1019.70
2018-06-16T03:59:40.226Z,1019.70
2018-06-16T04:00:40.801Z,1019.68
2018-06-16T04:01:41.374Z,1019.75
2018-06-16T04:02:41.947Z,1019.61
2018-06-16T04:03:42.522Z,1019.59
2018-06-16T04:04:43.095Z,1019.64
2018-06-16T04:06:49.497Z,1019.60
2018-06-16T04:07:50.120Z,1019.54
2018-06-16T04:08:50.699Z,1019.66
2018-06-16T04:10:29.106Z,1019.60
2018-06-16T04:12:07.475Z,1019.59
2018-06-16T04:13:08.047Z,1019.60
2018-06-16T04:14:08.620Z,1019.66
2018-06-16T04:23:23.669Z,1019.57
2018-06-16T04:24:24.244Z,1019.67
2018-06-16T04:25:24.872Z,1019.52
2018-06-16T04:26:25.496Z,1019.57
2018-06-16T04:27:26.069Z,1019.65
2018-06-16T04:28:26.643Z,1019.55
2018-06-16T04:29:27.217Z,1019.63
2018-06-16T04:30:27.789Z,1019.63
2018-06-16T04:31:28.364Z,1019.58
2018-06-16T04:32:28.937Z,1019.61
2018-06-16T04:33:29.510Z,1019.57
2018-06-16T04:34:30.101Z,1019.60
2018-06-16T04:36:40.490Z,1019.53
2018-06-16T04:37:41.062Z,1019.58
2018-06-16T04:38:41.637Z,1019.59
2018-06-16T04:39:42.210Z,1019.68
2018-06-16T04:40:42.781Z,1019.66
2018-06-16T04:41:43.556Z,1019.74
2018-06-16T04:42:44.131Z,1019.70
2018-06-16T04:43:44.754Z,1019.75
2018-06-16T04:44:45.330Z,1019.75
2018-06-16T04:45:46.031Z,1019.66
2018-06-16T04:46:46.476Z,1019.71
2018-06-16T04:47:47.049Z,1019.71
2018-06-16T04:48:47.622Z,1019.69
2018-06-16T04:49:48.195Z,1019.68
2018-06-16T04:50:48.769Z,1019.71
2018-06-16T04:51:49.390Z,1019.72
2018-06-16T04:52:49.965Z,1019.69
2018-06-16T04:53:50.538Z,1019.65
2018-06-16T04:54:51.150Z,1019.62
2018-06-16T04:55:51.725Z,1019.64
2018-06-16T04:56:52.302Z,1019.65
2018-06-16T04:57:52.923Z,1019.68
2018-06-16T04:58:53.647Z,1019.60
2018-06-16T04:59:54.219Z,1019.67
2018-06-16T05:00:54.791Z,1019.64
2018-06-16T05:01:55.367Z,1019.69
2018-06-16T05:02:55.937Z,1019.62
2018-06-16T05:03:56.560Z,1019.67
2018-06-16T05:04:57.133Z,1019.60
2018-06-16T05:05:57.709Z,1019.61
2018-06-16T05:06:58.330Z,1019.50
2018-06-16T05:07:58.904Z,1019.54
2018-06-16T05:08:59.478Z,1019.48
2018-06-16T05:10:00.051Z,1019.60
2018-06-16T05:11:00.666Z,1019.51
2018-06-16T05:12:01.240Z,1019.52
2018-06-16T05:13:01.813Z,1019.48
2018-06-16T05:14:02.385Z,1019.56
2018-06-16T05:15:03.010Z,1019.51
2018-06-16T05:16:03.632Z,1019.48
2018-06-16T05:17:21.976Z,1019.51
2018-06-16T05:18:22.550Z,1019.62
2018-06-16T05:19:23.124Z,1019.50
2018-06-16T05:20:23.697Z,1019.48
2018-06-16T05:21:24.269Z,1019.48
2018-06-16T05:22:24.843Z,1019.46
2018-06-16T05:23:25.417Z,1019.51
2018-06-16T05:24:26.043Z,1019.54
2018-06-16T05:25:26.617Z,1019.55
2018-06-16T05:26:27.188Z,1019.54
2018-06-16T05:27:27.762Z,1019.55
2018-06-16T05:28:28.383Z,1019.56
2018-06-16T05:29:28.958Z,1019.64
2018-06-16T05:30:29.582Z,1019.62
2018-06-16T05:31:30.256Z,1019.64
2018-06-16T05:32:30.827Z,1019.67
2018-06-16T05:33:31.403Z,1019.68
2018-06-16T05:34:31.974Z,1019.67
2018-06-16T05:35:32.547Z,1019.67
2018-06-16T05:36:33.121Z,1019.70
2018-06-16T05:37:33.796Z,1019.67
2018-06-16T05:38:34.367Z,1019.61
2018-06-16T05:39:34.941Z,1019.69
2018-06-16T05:40:35.514Z,1019.69
2018-06-16T05:41:36.087Z,1019.74
2018-06-16T05:42:36.659Z,1019.65
2018-06-16T05:43:37.233Z,1019.62
2018-06-16T05:44:37.807Z,1019.62
2018-06-16T05:45:38.379Z,1019.61
2018-06-16T05:46:38.954Z,1019.63
2018-06-16T05:47:39.577Z,1019.63
2018-06-16T05:48:40.152Z,1019.67
2018-06-16T05:49:40.728Z,1019.74
2018-06-16T05:50:41.299Z,1019.72
2018-06-16T05:51:41.923Z,1019.74
2018-06-16T05:52:42.496Z,1019.71
2018-06-16T05:53:43.072Z,1019.78
2018-06-16T05:54:43.645Z,1019.82
2018-06-16T05:55:44.223Z,1019.80
2018-06-16T05:56:44.792Z,1019.79
2018-06-16T05:57:45.363Z,1019.79
2018-06-16T05:58:45.936Z,1019.80
2018-06-16T05:59:46.559Z,1019.82
2018-06-16T06:00:47.132Z,1019.76
2018-06-16T06:01:47.707Z,1019.90
2018-06-16T06:02:48.280Z,1019.86
2018-06-16T06:03:48.852Z,1019.87
2018-06-16T06:04:49.476Z,1019.99
2018-06-16T06:05:50.049Z,1019.94
2018-06-16T06:06:50.621Z,1019.89
2018-06-16T06:07:51.196Z,1020.04
2018-06-16T06:08:51.771Z,1020.10
2018-06-16T06:12:40.988Z,1020.06
2018-06-16T06:13:41.565Z,1020.07
2018-06-16T06:14:42.178Z,1020.13
2018-06-16T06:15:43.640Z,1020.05
2018-06-16T06:16:44.173Z,1020.09
2018-06-16T06:17:44.748Z,1020.10
2018-06-16T06:18:45.320Z,1020.14
2018-06-16T06:19:45.894Z,1020.23
2018-06-16T06:20:46.618Z,1020.15
2018-06-16T06:21:47.194Z,1020.21
2018-06-16T06:22:47.767Z,1020.15
2018-06-16T06:23:48.338Z,1020.18
2018-06-16T06:24:48.912Z,1020.18
2018-06-16T06:25:49.486Z,1020.24
2018-06-16T06:26:50.057Z,1020.21
2018-06-16T06:27:50.630Z,1020.24
2018-06-16T06:28:51.253Z,1020.29
2018-06-16T06:29:51.827Z,1020.25
2018-06-16T06:30:52.400Z,1020.35
2018-06-16T06:31:52.972Z,1020.34
2018-06-16T06:32:53.547Z,1020.34
2018-06-16T06:33:54.120Z,1020.34
2018-06-16T06:34:54.742Z,1020.28
2018-06-16T06:35:55.314Z,1020.27
2018-06-16T06:36:55.889Z,1020.26
2018-06-16T06:37:56.460Z,1020.26
2018-06-16T06:38:57.038Z,1020.31
2018-06-16T06:39:57.657Z,1020.21
2018-06-16T06:40:58.230Z,1020.21
2018-06-16T06:41:58.802Z,1020.28
2018-06-16T06:42:59.375Z,1020.21
2018-06-16T06:43:59.949Z,1020.21
2018-06-16T07:01:33.026Z,1020.57
2018-06-16T07:02:33.643Z,1020.60
2018-06-16T07:03:34.218Z,1020.59
2018-06-16T07:04:34.791Z,1020.60
2018-06-16T07:05:35.363Z,1020.59
2018-06-16T07:06:35.987Z,1020.61
2018-06-16T07:07:36.612Z,1020.59
2018-06-16T07:08:37.227Z,1020.71
2018-06-16T07:09:37.800Z,1020.62
2018-06-16T07:10:38.448Z,1020.65
2018-06-16T07:11:38.946Z,1020.61
2018-06-16T07:12:39.568Z,1020.60
2018-06-16T07:13:40.142Z,1020.77
2018-06-16T07:14:40.718Z,1020.63
2018-06-16T07:15:41.289Z,1020.63
2018-06-16T07:16:41.860Z,1020.55
2018-06-16T07:17:42.433Z,1020.63
2018-06-16T07:18:43.056Z,1020.58
2018-06-16T07:19:43.629Z,1020.69
2018-06-16T07:20:44.201Z,1020.60
2018-06-16T07:21:44.775Z,1020.63
2018-06-16T07:22:45.347Z,1020.55
2018-06-16T07:23:45.928Z,1020.52
2018-06-16T07:24:46.497Z,1020.63
2018-06-16T07:25:47.117Z,1020.53
2018-06-16T07:26:47.739Z,1020.60
2018-06-16T07:27:48.312Z,1020.61
2018-06-16T07:28:48.886Z,1020.64
2018-06-16T07:29:49.460Z,1020.63
2018-06-16T07:33:05.292Z,1020.66
2018-06-16T07:34:05.865Z,1020.75
2018-06-16T07:35:06.440Z,1020.69
2018-06-16T07:36:07.128Z,1020.68
2018-06-16T07:37:07.637Z,1020.74
2018-06-16T07:38:08.210Z,1020.83
2018-06-16T07:39:08.783Z,1020.77
2018-06-16T07:40:09.357Z,1020.77
2018-06-16T07:41:09.931Z,1020.70
2018-06-16T07:42:10.531Z,1020.81
2018-06-16T07:43:11.126Z,1020.75
2018-06-16T07:44:11.696Z,1020.85
2018-06-16T07:45:12.272Z,1020.91
2018-06-16T07:46:12.896Z,1020.87
2018-06-16T07:47:13.468Z,1020.90
2018-06-16T07:48:14.043Z,1020.91
2018-06-16T07:49:14.613Z,1020.95
2018-06-16T07:50:15.188Z,1020.88
2018-06-16T07:51:15.764Z,1020.89
2018-06-16T07:52:16.383Z,1020.90
2018-06-16T07:53:16.956Z,1020.96
2018-06-16T07:54:17.527Z,1020.94
2018-06-16T07:55:18.100Z,1020.96
2018-06-16T07:56:18.672Z,1020.97
2018-06-16T07:57:19.245Z,1020.94
2018-06-16T07:58:19.818Z,1020.98
2018-06-16T07:59:20.392Z,1020.98
2018-06-16T08:00:20.965Z,1020.96
2018-06-16T08:01:21.593Z,1020.96
2018-06-16T08:02:22.162Z,1020.94
2018-06-16T08:03:22.736Z,1020.97
2018-06-16T08:04:23.313Z,1020.99
2018-06-16T08:05:23.933Z,1021.04
2018-06-16T08:06:24.507Z,1021.11
2018-06-16T08:07:25.079Z,1021.06
2018-06-16T08:08:25.653Z,1021.07
2018-06-16T08:09:26.227Z,1021.07
2018-06-16T08:10:26.800Z,1021.07
2018-06-16T08:11:27.425Z,1021.09
2018-06-16T08:12:27.996Z,1021.07
2018-06-16T08:13:28.572Z,1021.02
2018-06-16T08:14:29.186Z,1021.11
2018-06-16T08:15:29.823Z,1021.13
2018-06-16T08:16:30.375Z,1021.11
2018-06-16T08:17:30.948Z,1021.14
2018-06-16T08:18:31.521Z,1021.05
2018-06-16T08:19:32.146Z,1021.14
2018-06-16T08:20:32.717Z,1021.08
2018-06-16T08:21:33.343Z,1021.13
2018-06-16T08:22:33.914Z,1021.07
2018-06-16T08:23:34.489Z,1021.06
2018-06-16T08:24:35.115Z,1021.14
2018-06-16T08:25:35.670Z,1021.06
2018-06-16T08:26:36.241Z,1021.06
2018-06-16T08:27:36.814Z,1021.14
2018-06-16T08:28:37.388Z,1021.14
2018-06-16T08:29:38.012Z,1021.09
2018-06-16T08:30:38.585Z,1021.06
2018-06-16T08:31:39.158Z,1020.99
2018-06-16T08:32:39.731Z,1021.10
2018-06-16T08:33:40.399Z,1021.01
2018-06-16T08:34:41.018Z,1021.03
2018-06-16T08:35:41.566Z,1021.03
2018-06-16T08:36:42.139Z,1021.03
2018-06-16T08:37:42.761Z,1021.09
2018-06-16T08:38:43.334Z,1021.14
2018-06-16T08:39:43.908Z,1021.12
2018-06-16T08:40:44.485Z,1021.06
2018-06-16T08:41:45.057Z,1021.14
2018-06-16T08:42:45.630Z,1021.16
2018-06-16T08:43:46.204Z,1021.16
2018-06-16T08:44:46.778Z,1021.08
2018-06-16T08:45:47.401Z,1021.14
2018-06-16T08:46:47.973Z,1021.11
2018-06-16T08:47:48.546Z,1021.05
2018-06-16T08:48:49.121Z,1021.13
2018-06-16T08:49:49.695Z,1021.19
2018-06-16T08:50:50.317Z,1021.08
2018-06-16T08:51:50.892Z,1021.11
2018-06-16T08:52:56.517Z,1021.13
2018-06-16T08:53:57.091Z,1021.09
2018-06-16T08:54:57.714Z,1021.11
2018-06-16T08:55:58.286Z,1021.13
2018-06-16T09:14:48.802Z,1021.18
2018-06-16T09:15:49.429Z,1021.16
2018-06-16T09:16:50.079Z,1021.17
2018-06-16T09:17:50.674Z,1021.18
2018-06-16T09:18:51.251Z,1021.18
2018-06-16T09:19:51.985Z,1021.10
2018-06-16T09:20:52.558Z,1021.16
2018-06-16T09:21:53.137Z,1021.21
2018-06-16T09:22:53.718Z,1021.13
2018-06-16T09:23:54.453Z,1021.20
2018-06-16T09:24:55.023Z,1021.11
2018-06-16T09:25:55.600Z,1021.15
2018-06-16T09:26:56.180Z,1021.15
2018-06-16T09:27:56.787Z,1021.18
2018-06-16T09:28:57.337Z,1021.14
2018-06-16T09:29:57.914Z,1021.20
2018-06-16T09:30:58.494Z,1021.13
2018-06-16T09:31:59.327Z,1021.01
2018-06-16T09:32:59.860Z,1021.02
2018-06-16T09:34:00.487Z,1021.05
2018-06-16T09:35:01.067Z,1021.07
2018-06-16T09:36:01.849Z,1021.11
2018-06-16T09:37:02.466Z,1021.09
2018-06-16T09:38:03.094Z,1021.07
2018-06-16T09:39:03.671Z,1021.05
2018-06-16T09:40:04.302Z,1021.09
2018-06-16T09:41:05.017Z,1021.05
2018-06-16T09:42:05.607Z,1021.08
2018-06-16T09:43:06.231Z,1021.08
2018-06-16T09:44:06.801Z,1021.07
2018-06-16T09:45:07.406Z,1021.07
2018-06-16T09:46:07.971Z,1021.09
2018-06-16T09:47:08.868Z,1021.07
2018-06-16T09:48:09.432Z,1021.13
2018-06-16T09:49:09.963Z,1021.14
2018-06-16T09:50:10.550Z,1021.17
2018-06-16T09:51:11.118Z,1021.14
2018-06-16T09:52:11.699Z,1021.11
2018-06-16T09:53:12.370Z,1021.14
2018-06-16T09:54:13.085Z,1021.17
2018-06-16T09:55:13.670Z,1021.12
2018-06-16T09:56:14.297Z,1021.05
2018-06-16T09:57:14.872Z,1021.09
2018-06-16T09:58:15.451Z,1021.10
2018-06-16T09:59:16.030Z,1021.15
2018-06-16T10:00:16.750Z,1021.10
2018-06-16T10:01:17.334Z,1021.07
2018-06-16T10:02:17.911Z,1021.00
2018-06-16T10:03:18.907Z,1021.10
2018-06-16T10:04:19.462Z,1021.08
2018-06-16T10:05:20.039Z,1021.09
2018-06-16T10:06:20.617Z,1021.02
2018-06-16T10:07:21.194Z,1021.04
2018-06-16T10:08:21.771Z,1021.09
2018-06-16T10:09:22.396Z,1021.13
2018-06-16T10:10:22.929Z,1021.11
2018-06-16T10:11:23.606Z,1021.12
2018-06-16T10:12:24.287Z,1021.09
2018-06-16T10:13:24.880Z,1021.11
2018-06-16T10:14:25.452Z,1021.13
2018-06-16T10:15:26.079Z,1021.16
2018-06-16T10:16:26.625Z,1021.10
2018-06-16T10:17:27.204Z,1021.07
2018-06-16T10:18:27.781Z,1021.15
2018-06-16T10:19:28.360Z,1021.17
2018-06-16T10:20:28.989Z,1021.16
2018-06-16T10:21:29.566Z,1021.29
2018-06-16T10:22:30.144Z,1021.25
2018-06-16T10:23:30.725Z,1021.32
2018-06-16T10:24:31.347Z,1021.31
2018-06-16T10:25:31.924Z,1021.30
2018-06-16T10:26:32.500Z,1021.20
2018-06-16T10:27:33.131Z,1021.23
2018-06-16T10:28:33.708Z,1021.23
2018-06-16T10:29:34.288Z,1021.21
2018-06-16T10:30:34.866Z,1021.20
2018-06-16T10:31:35.497Z,1021.16
2018-06-16T10:32:36.077Z,1021.21
2018-06-16T10:33:36.653Z,1021.09
2018-06-16T10:34:37.235Z,1021.20
2018-06-16T10:35:37.856Z,1021.17
2018-06-16T10:36:38.482Z,1021.21
2018-06-16T10:37:39.059Z,1021.20
2018-06-16T10:38:39.635Z,1021.12
2018-06-16T10:39:40.214Z,1021.20
2018-06-16T10:40:40.795Z,1021.19
2018-06-16T10:41:41.541Z,1021.09
2018-06-16T10:42:42.092Z,1021.09
2018-06-16T10:43:42.670Z,1021.08
2018-06-16T10:44:43.247Z,1021.11
2018-06-16T10:45:43.875Z,1021.05
2018-06-16T10:46:44.503Z,1020.99
2018-06-16T10:47:45.136Z,1021.00
2018-06-16T10:48:45.661Z,1020.99
2018-06-16T10:49:46.238Z,1020.94
2018-06-16T10:50:46.817Z,1021.09
2018-06-16T10:51:47.396Z,1020.91
2018-06-16T10:52:47.975Z,1021.04
2018-06-16T10:53:48.716Z,1020.96
2018-06-16T10:54:49.334Z,1021.00
2018-06-16T10:55:49.911Z,1021.01
2018-06-16T10:56:50.494Z,1021.04
2018-06-16T10:57:51.197Z,1021.05
2018-06-16T10:58:51.785Z,1021.03
2018-06-16T10:59:52.364Z,1021.11
2018-06-16T11:00:52.942Z,1021.16
2018-06-16T11:01:53.520Z,1021.15
2018-06-16T11:02:54.301Z,1021.15
2018-06-16T11:03:55.014Z,1021.20
2018-06-16T11:04:55.596Z,1021.17
2018-06-16T11:05:56.177Z,1021.15
2018-06-16T11:06:56.809Z,1021.15
2018-06-16T11:07:57.426Z,1021.09
2018-06-16T11:08:58.160Z,1020.96
2018-06-16T11:09:58.734Z,1021.11
2018-06-16T11:10:59.313Z,1021.02
2018-06-16T11:11:59.941Z,1020.97
2018-06-16T11:13:00.522Z,1021.03
2018-06-16T11:14:01.104Z,1020.97
2018-06-16T11:15:01.687Z,1020.99
2018-06-16T11:16:02.265Z,1020.96
2018-06-16T11:17:02.845Z,1020.90
2018-06-16T11:18:03.428Z,1021.03
2018-06-16T11:19:04.026Z,1021.02
2018-06-16T11:20:04.642Z,1021.02
2018-06-16T11:21:05.228Z,1020.89
2018-06-16T11:22:05.854Z,1020.87
2018-06-16T11:23:06.434Z,1020.94
2018-06-16T11:24:07.012Z,1020.81
2018-06-16T11:25:07.592Z,1020.95
2018-06-16T11:26:08.173Z,1020.87
2018-06-16T11:27:08.755Z,1020.99
2018-06-16T11:28:09.337Z,1020.93
2018-06-16T11:29:09.917Z,1020.97
2018-06-16T11:30:10.548Z,1020.94
2018-06-16T11:31:11.228Z,1020.97
2018-06-16T11:32:12.009Z,1020.98
2018-06-16T11:33:12.589Z,1020.98
2018-06-16T11:34:13.219Z,1020.97
2018-06-16T11:35:13.798Z,1020.96
2018-06-16T11:36:14.378Z,1021.00
2018-06-16T11:37:14.961Z,1021.01
2018-06-16T11:38:15.542Z,1021.14
2018-06-16T11:39:16.124Z,1021.11
2018-06-16T11:40:16.709Z,1021.07
2018-06-16T11:41:17.340Z,1021.00
2018-06-16T11:42:17.930Z,1020.99
2018-06-16T11:43:18.520Z,1021.11
2018-06-16T11:45:20.699Z,1021.06
2018-06-16T11:46:21.286Z,1021.00
2018-06-16T11:47:21.876Z,1021.03
2018-06-16T11:48:22.514Z,1020.92
2018-06-16T11:49:23.104Z,1020.94
2018-06-16T11:50:23.745Z,1020.85
2018-06-16T11:51:24.334Z,1020.91
2018-06-16T11:52:24.987Z,1020.88
2018-06-16T11:53:25.563Z,1020.79
2018-06-16T11:54:26.154Z,1020.87
2018-06-16T11:55:26.743Z,1020.87
2018-06-16T11:56:27.334Z,1020.93
2018-06-16T11:57:27.923Z,1020.85
2018-06-16T11:58:28.514Z,1020.88
2018-06-16T11:59:29.106Z,1020.89
2018-06-16T12:01:31.269Z,1020.92
2018-06-16T12:02:31.859Z,1020.89
2018-06-16T12:03:32.457Z,1020.94
2018-06-16T12:04:33.039Z,1020.88
2018-06-16T12:05:33.669Z,1020.93
2018-06-16T12:06:34.261Z,1020.98
2018-06-16T12:07:34.846Z,1020.96
2018-06-16T12:08:35.491Z,1021.02
2018-06-16T12:09:36.076Z,1021.02
2018-06-16T12:10:36.715Z,1021.00
2018-06-16T12:11:37.308Z,1020.98
2018-06-16T12:12:37.896Z,1021.04
2018-06-16T12:13:38.536Z,1021.00
2018-06-16T12:14:39.127Z,1021.02
2018-06-16T12:15:39.718Z,1020.98
2018-06-16T12:16:40.310Z,1020.97
2018-06-16T12:17:40.903Z,1020.97
2018-06-16T12:18:41.490Z,1020.99
2018-06-16T12:19:42.082Z,1020.96
2018-06-16T12:20:42.673Z,1020.92
2018-06-16T12:21:43.263Z,1020.95
2018-06-16T12:22:43.855Z,1020.93
2018-06-16T12:23:44.450Z,1020.90
2018-06-16T12:24:45.045Z,1020.92
2018-06-16T12:25:45.630Z,1020.93
2018-06-16T12:26:46.221Z,1020.86
2018-06-16T12:27:46.859Z,1021.00
2018-06-16T12:29:49.101Z,1020.84
2018-06-16T12:30:49.675Z,1020.97
2018-06-16T12:31:50.268Z,1020.79
2018-06-16T12:32:50.905Z,1020.97
2018-06-16T12:33:51.495Z,1020.97
2018-06-16T12:34:52.085Z,1020.90
2018-06-16T12:35:52.683Z,1020.90
2018-06-16T12:36:53.318Z,1020.97
2018-06-16T12:37:53.909Z,1020.84
2018-06-16T12:38:54.498Z,1020.82
2018-06-16T12:39:55.089Z,1020.81
2018-06-16T12:40:55.680Z,1020.79
2018-06-16T12:41:56.269Z,1020.83
2018-06-16T12:42:56.859Z,1020.77
2018-06-16T12:43:57.502Z,1020.82
2018-06-16T12:44:58.096Z,1020.82
2018-06-16T12:45:58.684Z,1020.80
2018-06-16T12:46:59.275Z,1020.78
2018-06-16T12:47:59.867Z,1020.75
2018-06-16T12:49:00.512Z,1020.85
2018-06-16T12:50:01.141Z,1020.79
2018-06-16T12:51:01.736Z,1020.77
2018-06-16T12:52:02.323Z,1020.71
2018-06-16T12:53:02.911Z,1020.69
2018-06-16T12:54:03.502Z,1020.67
2018-06-16T12:55:04.095Z,1020.81
2018-06-16T12:56:04.688Z,1020.75
2018-06-16T12:57:05.333Z,1020.88
2018-06-16T12:58:05.958Z,1020.80
2018-06-16T12:59:06.551Z,1020.79
2018-06-16T13:00:07.141Z,1020.79
2018-06-16T13:01:07.781Z,1020.77
2018-06-16T13:02:08.371Z,1020.70
2018-06-16T13:03:08.961Z,1020.75
2018-06-16T13:04:09.555Z,1020.71
2018-06-16T13:05:10.145Z,1020.70
2018-06-16T13:06:10.737Z,1020.67
2018-06-16T13:07:11.377Z,1020.62
2018-06-16T13:08:11.969Z,1020.67
2018-06-16T13:09:12.562Z,1020.66
2018-06-16T13:10:13.151Z,1020.63
2018-06-16T13:11:13.742Z,1020.68
2018-06-16T13:12:14.334Z,1020.67
2018-06-16T13:13:14.924Z,1020.62
2018-06-16T13:14:15.516Z,1020.67
2018-06-16T13:15:16.108Z,1020.56